createdAt,value
2022-09-15T00:02:10.876Z,0
2022-09-15T00:08:30.858Z,0
2022-09-15T00:14:53.810Z,0
2022-09-15T00:21:13.904Z,0
2022-09-15T00:27:36.880Z,0
2022-09-15T00:33:56.846Z,0
2022-09-15T00:40:19.935Z,0
2022-09-15T00:46:39.815Z,0
2022-09-15T00:53:02.813Z,0
2022-09-15T00:59:22.806Z,0
2022-09-15T01:05:45.807Z,0
2022-09-15T01:12:05.830Z,0
2022-09-15T01:18:28.973Z,0
2022-09-15T01:24:48.748Z,0
2022-09-15T01:31:11.911Z,0
2022-09-15T01:37:31.958Z,0
2022-09-15T01:43:54.930Z,0
2022-09-15T01:50:14.767Z,0
2022-09-15T01:56:37.803Z,0
2022-09-15T02:02:57.733Z,0
2022-09-15T02:09:20.817Z,0
2022-09-15T02:15:40.805Z,0
2022-09-15T02:22:03.849Z,0
2022-09-15T02:28:23.892Z,0
2022-09-15T02:34:46.785Z,0
2022-09-15T02:41:06.858Z,0
2022-09-15T02:47:29.812Z,0
2022-09-15T02:53:49.932Z,0
2022-09-15T03:00:12.746Z,0
2022-09-15T03:06:32.794Z,0
2022-09-15T03:22:07.666Z,0
2022-09-15T03:28:27.760Z,0
2022-09-15T03:34:51.772Z,0
2022-09-15T03:41:10.832Z,0
2022-09-15T03:47:33.820Z,0
2022-09-15T03:53:53.749Z,0
2022-09-15T04:00:16.787Z,0
2022-09-15T04:06:36.797Z,0
2022-09-15T04:12:59.866Z,0
2022-09-15T04:19:19.815Z,0
2022-09-15T04:25:42.856Z,0
2022-09-15T04:32:02.748Z,0
2022-09-15T04:38:25.890Z,0
2022-09-15T04:44:45.826Z,0
2022-09-15T04:51:08.797Z,0
2022-09-15T04:57:28.789Z,0
2022-09-15T05:03:51.754Z,0
2022-09-15T05:10:11.798Z,0
2022-09-15T05:16:34.899Z,0
2022-09-15T05:22:54.800Z,0
2022-09-15T05:29:17.756Z,5.62
2022-09-15T05:35:37.788Z,5.62
2022-09-15T05:42:00.822Z,5.62
2022-09-15T05:48:20.984Z,5.62
2022-09-15T05:54:43.826Z,5.62
2022-09-15T06:01:03.759Z,11.25
2022-09-15T06:07:26.766Z,11.25
2022-09-15T06:13:46.927Z,16.88
2022-09-15T06:20:09.878Z,16.88
2022-09-15T06:26:29.753Z,16.88
2022-09-15T06:32:52.779Z,16.88
2022-09-15T06:39:12.869Z,11.25
2022-09-15T06:45:35.755Z,16.88
2022-09-15T06:51:55.808Z,16.88
2022-09-15T06:58:18.827Z,28.12
2022-09-15T07:04:38.793Z,33.75
2022-09-15T07:11:01.799Z,28.12
2022-09-15T07:17:21.861Z,39.38
2022-09-15T07:23:44.894Z,39.38
2022-09-15T07:30:04.800Z,39.38
2022-09-15T07:36:27.844Z,33.75
2022-09-15T07:42:48.034Z,33.75
2022-09-15T07:49:10.954Z,50.62
2022-09-15T07:55:30.842Z,45
2022-09-15T08:01:53.846Z,56.25
2022-09-15T08:08:13.844Z,50.62
2022-09-15T08:24:42.775Z,61.88
2022-09-15T08:31:02.747Z,61.88
2022-09-15T08:37:26.745Z,67.5
2022-09-15T08:43:46.788Z,73.12
2022-09-15T08:50:09.761Z,67.5
2022-09-15T08:56:29.770Z,50.62
2022-09-15T09:02:52.975Z,56.25
2022-09-15T09:09:12.726Z,73.12
2022-09-15T09:15:35.811Z,61.88
2022-09-15T09:21:55.905Z,84.38
2022-09-15T09:28:19.016Z,101.25
2022-09-15T09:34:38.729Z,90
2022-09-15T09:41:02.664Z,61.88
2022-09-15T09:47:21.754Z,90
2022-09-15T09:53:44.781Z,84.38
2022-09-15T10:00:04.765Z,67.5
2022-09-15T10:06:27.727Z,67.5
2022-09-15T10:12:47.953Z,73.12
2022-09-15T10:19:11.104Z,61.88
2022-09-15T10:25:44.469Z,50.62
2022-09-15T10:31:53.824Z,95.62
2022-09-15T10:38:13.774Z,95.62
2022-09-15T10:44:36.803Z,90
2022-09-15T10:50:56.873Z,95.62
2022-09-15T10:57:19.828Z,95.62
2022-09-15T11:03:39.748Z,90
2022-09-15T11:10:02.864Z,90
2022-09-15T11:16:22.827Z,101.25
2022-09-15T11:22:49.397Z,90
2022-09-15T11:29:05.858Z,61.88
2022-09-15T11:35:28.874Z,84.38
2022-09-15T11:41:48.857Z,95.62
2022-09-15T11:48:12.035Z,84.38
2022-09-15T11:54:31.800Z,106.88
2022-09-15T12:00:54.801Z,101.25
2022-09-15T12:07:14.909Z,84.38
2022-09-15T12:13:37.983Z,90
2022-09-15T12:19:57.751Z,61.88
2022-09-15T12:26:20.748Z,56.25
2022-09-15T12:32:40.867Z,78.75
2022-09-15T12:39:03.803Z,84.38
2022-09-15T12:45:23.844Z,67.5
2022-09-15T12:51:46.789Z,106.88
2022-09-15T12:58:06.777Z,78.75
2022-09-15T13:04:29.774Z,39.38
2022-09-15T13:10:49.763Z,84.38
2022-09-15T13:17:12.769Z,78.75
2022-09-15T13:23:32.733Z,90
2022-09-15T13:39:07.672Z,67.5
2022-09-15T13:45:27.765Z,84.38
2022-09-15T13:51:53.275Z,78.75
2022-09-15T14:04:33.747Z,84.38
2022-09-15T14:10:53.855Z,73.12
2022-09-15T14:17:16.857Z,56.25
2022-09-15T14:23:36.789Z,50.62
2022-09-15T14:29:59.823Z,61.88
2022-09-15T14:36:19.988Z,61.88
2022-09-15T14:42:42.825Z,56.25
2022-09-15T14:49:02.843Z,39.38
2022-09-15T14:55:25.798Z,28.12
2022-09-15T15:01:45.851Z,22.5
2022-09-15T15:08:08.779Z,28.12
2022-09-15T15:14:28.900Z,11.25
2022-09-15T15:20:51.736Z,11.25
2022-09-15T15:27:11.883Z,5.62
2022-09-15T15:33:34.798Z,5.62
2022-09-15T15:39:54.899Z,5.62
2022-09-15T15:46:17.843Z,5.62
2022-09-15T15:52:37.914Z,5.62
2022-09-15T15:59:00.857Z,11.25
2022-09-15T16:05:20.842Z,11.25
2022-09-15T16:11:43.981Z,5.62
2022-09-15T16:18:03.931Z,5.62
2022-09-15T16:24:26.872Z,5.62
2022-09-15T16:30:46.968Z,5.62
2022-09-15T16:37:09.786Z,5.62
2022-09-15T16:43:29.918Z,11.25
2022-09-15T16:49:52.774Z,11.25
2022-09-15T16:56:12.737Z,11.25
2022-09-15T17:02:35.781Z,11.25
2022-09-15T17:08:55.770Z,5.62
2022-09-15T17:15:18.776Z,0
2022-09-15T17:21:38.832Z,0
2022-09-15T17:28:01.831Z,0
2022-09-15T17:34:21.965Z,0
2022-09-15T17:40:44.793Z,0
2022-09-15T17:47:04.930Z,0
2022-09-15T17:53:27.806Z,0
2022-09-15T17:59:47.755Z,0
2022-09-15T18:06:10.892Z,0
2022-09-15T18:12:30.774Z,0
2022-09-15T18:18:53.837Z,0
2022-09-15T18:25:13.834Z,0
2022-09-15T18:48:37.771Z,0
2022-09-15T18:55:00.720Z,0
2022-09-15T19:01:20.801Z,0
2022-09-15T19:07:43.832Z,0
2022-09-15T19:14:03.877Z,0
2022-09-15T19:20:26.758Z,0
2022-09-15T19:26:46.777Z,0
2022-09-15T19:33:09.813Z,0
2022-09-15T19:39:29.744Z,0
2022-09-15T19:45:52.816Z,0
2022-09-15T19:52:12.885Z,0
2022-09-15T19:58:35.800Z,0
2022-09-15T20:04:55.896Z,0
2022-09-15T20:11:18.841Z,0
2022-09-15T20:17:38.810Z,0
2022-09-15T20:24:01.809Z,0
2022-09-15T20:30:21.762Z,0
2022-09-15T20:36:45.228Z,0
2022-09-15T20:43:04.766Z,0
2022-09-15T20:49:27.753Z,0
2022-09-15T20:55:47.747Z,0
2022-09-15T21:02:10.865Z,0
2022-09-15T21:08:30.844Z,0
2022-09-15T21:14:53.755Z,0
2022-09-15T21:21:13.783Z,0
2022-09-15T21:27:36.912Z,0
2022-09-15T21:33:57.729Z,0
2022-09-15T21:40:20.852Z,0
2022-09-15T21:46:40.771Z,0
2022-09-15T21:53:03.875Z,0
2022-09-15T21:59:23.802Z,0
2022-09-15T22:22:20.791Z,0
2022-09-15T22:28:40.733Z,0
2022-09-15T22:35:03.758Z,0
2022-09-15T22:41:23.799Z,0
2022-09-15T22:47:46.937Z,0
2022-09-15T22:54:06.743Z,0
2022-09-15T23:00:29.838Z,0
2022-09-15T23:06:49.776Z,0
2022-09-15T23:13:12.854Z,0
2022-09-15T23:19:32.822Z,0
2022-09-15T23:25:55.881Z,0
2022-09-15T23:32:15.768Z,0
2022-09-15T23:38:38.881Z,0
2022-09-15T23:44:58.797Z,0
2022-09-15T23:51:21.771Z,0
2022-09-15T23:57:41.809Z,0
